Time;durP1;ratioP1;P1;durP2;ratioP2;P2;SDS_P1;SDS_P2;PMS_P1;PMS_P2;Temp;Humidity;BMP_temperature;BMP_pressure;BME280_temperature;BME280_humidity;BME280_pressure;Samples;Min_cycle;Max_cycle;Signal;HPM_P1;HPM_P2
2022/05/02 04:04:38;;;;;;;28.67;24.50;;;5.40;99.90;;;;;;5549637;24;20239;-78
2022/05/02 04:07:09;;;;;;;28.73;23.80;;;5.40;99.90;;;;;;4839164;29;20659;-78
2022/05/02 04:09:37;;;;;;;28.43;23.73;;;5.50;99.90;;;;;;4841693;29;20271;-78
2022/05/02 04:12:06;;;;;;;26.63;23.73;;;5.50;99.90;;;;;;4857021;29;20321;-77
2022/05/02 04:14:34;;;;;;;25.67;22.90;;;5.50;99.90;;;;;;4843343;29;20263;-77
2022/05/02 04:17:02;;;;;;;27.57;22.83;;;5.50;99.90;;;;;;4841976;29;20586;-77
2022/05/02 04:19:31;;;;;;;25.67;21.57;;;5.60;99.90;;;;;;4841667;29;20302;-77
2022/05/02 04:22:00;;;;;;;24.30;21.70;;;5.60;99.90;;;;;;4841740;29;20672;-78
2022/05/02 04:24:28;;;;;;;23.97;21.47;;;5.70;99.90;;;;;;4857362;29;20241;-76
2022/05/02 04:26:57;;;;;;;24.20;21.70;;;5.70;99.90;;;;;;4852123;29;20244;-77
2022/05/02 04:29:26;;;;;;;23.10;20.80;;;5.70;99.90;;;;;;4841039;29;20212;-77
2022/05/02 04:31:54;;;;;;;22.67;20.37;;;5.80;99.90;;;;;;4841106;29;20294;-77
2022/05/02 04:34:22;;;;;;;22.33;20.03;;;5.80;99.90;;;;;;4842262;29;20246;-78
2022/05/02 04:36:50;;;;;;;22.43;20.10;;;5.90;99.90;;;;;;4851465;29;20288;-77
2022/05/02 04:39:19;;;;;;;21.80;19.50;;;5.90;99.90;;;;;;4862815;29;20577;-76
2022/05/02 04:41:47;;;;;;;22.67;20.13;;;6.00;99.90;;;;;;4855617;29;20221;-78
2022/05/02 04:44:16;;;;;;;24.03;20.47;;;6.10;99.90;;;;;;4859507;29;20289;-75
2022/05/02 04:46:44;;;;;;;20.97;18.67;;;6.20;99.90;;;;;;4859876;29;20768;-74
2022/05/02 04:49:12;;;;;;;20.93;18.83;;;6.20;99.90;;;;;;4859664;29;20209;-76
2022/05/02 04:51:40;;;;;;;21.67;19.47;;;6.30;99.90;;;;;;4854837;29;20207;-75
2022/05/02 04:54:08;;;;;;;21.07;18.80;;;6.50;99.90;;;;;;4859826;29;20257;-75
2022/05/02 04:56:38;;;;;;;21.87;19.03;;;6.60;99.90;;;;;;4859791;29;20234;-76
2022/05/02 04:59:06;;;;;;;20.93;18.70;;;6.70;99.90;;;;;;4848376;29;20302;-76
2022/05/02 05:01:34;;;;;;;20.33;18.23;;;6.80;99.90;;;;;;4842412;29;20686;-75
2022/05/02 05:04:02;;;;;;;20.53;18.33;;;7.00;99.90;;;;;;4856539;29;20802;-77
2022/05/02 05:06:30;;;;;;;20.77;18.57;;;7.10;99.90;;;;;;4854934;29;20199;-76
2022/05/02 05:08:59;;;;;;;20.13;17.83;;;7.30;99.90;;;;;;4859192;29;20630;-76
2022/05/02 05:11:34;;;;;;;21.27;19.20;;;7.40;99.90;;;;;;4859522;29;20733;-78
2022/05/02 05:17:19;;;;;;;19.73;17.73;;;7.70;99.90;;;;;;4822754;29;20207;-77
2022/05/02 05:20:02;;;;;;;19.93;17.83;;;7.80;99.90;;;;;;4821805;29;20259;-75
2022/05/02 05:22:52;;;;;;;19.50;17.50;;;7.90;99.90;;;;;;4822568;29;20279;-75
2022/05/02 05:25:42;;;;;;;19.57;17.47;;;8.00;99.90;;;;;;4829865;29;20208;-78
2022/05/02 05:28:41;;;;;;;19.53;17.10;;;8.20;99.90;;;;;;4853954;29;20310;-77
2022/05/02 05:31:35;;;;;;;19.90;17.77;;;8.20;99.90;;;;;;4859407;29;20298;-76
2022/05/02 05:34:08;;;;;;;19.93;17.83;;;8.30;99.90;;;;;;4854857;29;20286;-77
2022/05/02 05:36:49;;;;;;;19.53;17.43;;;8.20;99.90;;;;;;4822573;29;20200;-76
2022/05/02 05:39:26;;;;;;;21.97;18.17;;;8.30;99.90;;;;;;4829389;29;20279;-77
2022/05/02 05:42:08;;;;;;;21.00;18.80;;;8.40;99.90;;;;;;4859331;29;20293;-77
2022/05/02 05:44:52;;;;;;;19.47;17.37;;;8.50;99.90;;;;;;4859091;29;20207;-76
2022/05/02 05:47:42;;;;;;;20.60;18.40;;;8.50;99.90;;;;;;4858851;29;20286;-76
2022/05/02 05:50:21;;;;;;;23.50;18.23;;;8.60;99.90;;;;;;4862576;29;20226;-77
2022/05/02 05:53:06;;;;;;;21.73;18.27;;;8.70;99.90;;;;;;4862830;29;20284;-74
2022/05/02 05:56:02;;;;;;;20.73;18.50;;;8.90;99.90;;;;;;4828295;29;20296;-75
2022/05/02 05:58:45;;;;;;;19.80;17.70;;;9.30;99.90;;;;;;4825582;29;20216;-77
2022/05/02 06:01:17;;;;;;;18.80;16.73;;;9.90;99.90;;;;;;4839033;29;20211;-79
2022/05/02 06:04:00;;;;;;;18.43;16.43;;;10.80;99.90;;;;;;4838235;29;20217;-76
2022/05/02 06:06:29;;;;;;;19.63;15.93;;;11.90;99.90;;;;;;4842874;29;20220;-76
2022/05/02 06:08:59;;;;;;;18.47;16.67;;;13.10;99.90;;;;;;4854656;29;20294;-77
2022/05/02 06:11:28;;;;;;;17.53;15.80;;;13.70;99.90;;;;;;4862085;29;20214;-77
2022/05/02 06:13:59;;;;;;;16.33;14.70;;;14.40;99.90;;;;;;4853673;29;20228;-76
2022/05/02 06:19:17;;;;;;;19.27;17.30;;;15.40;99.90;;;;;;4825332;29;20288;-76
2022/05/02 06:21:47;;;;;;;19.83;17.93;;;14.80;99.90;;;;;;4828693;29;20296;-75
2022/05/02 06:24:15;;;;;;;19.70;17.70;;;14.80;99.90;;;;;;4824980;29;20212;-75
2022/05/02 06:26:45;;;;;;;21.00;18.90;;;14.50;99.90;;;;;;4825053;29;20581;-77
2022/05/02 06:29:14;;;;;;;20.50;18.47;;;14.30;99.90;;;;;;4824731;29;20256;-78
2022/05/02 06:31:45;;;;;;;21.97;19.87;;;14.30;99.90;;;;;;4824974;29;20227;-77
2022/05/02 06:34:14;;;;;;;21.60;19.30;;;14.20;99.90;;;;;;4854605;29;20326;-75
2022/05/02 06:37:12;;;;;;;26.50;23.83;;;14.10;99.90;;;;;;4835056;29;20713;-76
2022/05/02 06:39:58;;;;;;;26.47;23.87;;;13.70;99.90;;;;;;4839838;29;20231;-77
2022/05/02 06:42:34;;;;;;;28.37;25.57;;;13.20;99.90;;;;;;4845686;29;20215;-78
2022/05/02 06:45:22;;;;;;;29.47;26.37;;;13.00;99.90;;;;;;4861030;29;20748;-77
2022/05/02 06:48:28;;;;;;;29.03;26.13;;;13.00;99.90;;;;;;4839257;29;20276;-75
2022/05/02 06:51:01;;;;;;;27.93;24.53;;;13.00;99.90;;;;;;4838305;29;20203;-77
2022/05/02 06:53:52;;;;;;;26.57;23.83;;;13.00;99.90;;;;;;4832586;29;20223;-78
2022/05/02 06:56:31;;;;;;;25.47;22.87;;;13.70;99.90;;;;;;4842651;29;20585;-79
2022/05/02 06:59:06;;;;;;;23.53;21.23;;;14.40;99.90;;;;;;4839128;29;20212;-77
2022/05/02 07:01:50;;;;;;;25.30;23.05;;;15.30;99.90;;;;;;4851271;29;20886;-75
2022/05/02 07:04:45;;;;;;;23.40;21.13;;;16.50;99.90;;;;;;4854399;29;20852;-78
2022/05/02 07:07:35;;;;;;;21.70;19.70;;;17.50;99.90;;;;;;4854203;29;20268;-78
2022/05/02 07:10:08;;;;;;;21.17;19.17;;;18.10;99.90;;;;;;4858216;29;20301;-76
2022/05/02 07:12:41;;;;;;;20.90;18.80;;;18.50;99.90;;;;;;4837382;29;20215;-78
2022/05/02 07:15:13;;;;;;;19.97;18.07;;;18.80;99.90;;;;;;4850739;29;20219;-83
2022/05/02 07:18:04;;;;;;;21.27;19.27;;;18.90;99.90;;;;;;4840561;29;20465;-81
2022/05/02 07:20:43;;;;;;;20.03;18.13;;;19.50;99.90;;;;;;4858573;29;20279;-79
2022/05/02 07:23:42;;;;;;;20.73;18.67;;;19.20;99.90;;;;;;4853915;29;20241;-82
2022/05/02 07:26:15;;;;;;;19.97;18.03;;;20.10;99.90;;;;;;4856920;29;20255;-80
2022/05/02 07:28:46;;;;;;;19.67;17.77;;;20.50;99.90;;;;;;4860868;29;20203;-80
2022/05/02 07:31:15;;;;;;;21.33;19.33;;;20.30;99.90;;;;;;4853901;29;20246;-80
2022/05/02 07:33:46;;;;;;;19.17;17.30;;;20.90;99.90;;;;;;4848382;29;20227;-80
2022/05/02 07:36:17;;;;;;;17.80;16.23;;;20.50;99.90;;;;;;4849262;29;20238;-81
2022/05/02 07:38:47;;;;;;;16.23;14.73;;;21.50;99.90;;;;;;4861278;29;20254;-79
2022/05/02 07:41:25;;;;;;;13.80;12.60;;;22.40;98.80;;;;;;4859974;29;20266;-82
2022/05/02 07:43:59;;;;;;;15.47;13.97;;;22.30;99.10;;;;;;4842377;29;20219;-79
2022/05/02 07:46:29;;;;;;;18.87;17.10;;;21.20;98.50;;;;;;4842593;29;20200;-80
2022/05/02 07:48:59;;;;;;;18.17;16.47;;;20.50;99.20;;;;;;4842879;29;20216;-80
2022/05/02 07:51:31;;;;;;;17.00;15.40;;;20.00;99.90;;;;;;4848342;29;20230;-81
2022/05/02 07:54:01;;;;;;;18.73;17.03;;;19.30;99.90;;;;;;4846718;29;20258;-81
2022/05/02 07:56:33;;;;;;;19.00;17.30;;;19.50;99.90;;;;;;4845641;29;20224;-79
2022/05/02 07:59:03;;;;;;;17.23;15.60;;;19.60;99.90;;;;;;4851202;29;20697;-78
2022/05/02 08:01:31;;;;;;;17.07;15.47;;;19.70;99.90;;;;;;4856368;29;20292;-79
2022/05/02 08:03:59;;;;;;;16.07;14.67;;;19.60;99.90;;;;;;4854627;29;20212;-79
2022/05/02 08:06:50;;;;;;;16.02;14.55;;;19.70;99.90;;;;;;4864713;29;20498;-78
2022/05/02 08:09:37;;;;;;;16.33;14.60;;;19.60;99.90;;;;;;4826232;29;20258;-77
2022/05/02 08:12:21;;;;;;;14.60;13.07;;;19.10;99.90;;;;;;4835741;29;20682;-77
2022/05/02 08:14:59;;;;;;;16.03;14.63;;;20.20;99.90;;;;;;4832897;29;20231;-79
2022/05/02 08:17:41;;;;;;;15.63;14.13;;;20.80;99.90;;;;;;4843544;29;20208;-78
2022/05/02 08:20:18;;;;;;;15.20;13.70;;;20.10;99.90;;;;;;4864719;29;20267;-76
2022/05/02 08:28:47;;;;;;;13.73;12.33;;;21.60;98.70;;;;;;4824221;29;20304;-78
2022/05/02 08:31:21;;;;;;;14.43;13.13;;;20.90;98.40;;;;;;4829513;29;20291;-77
2022/05/02 08:34:00;;;;;;;12.67;11.37;;;20.80;99.90;;;;;;4848816;29;20211;-76
2022/05/02 08:36:37;;;;;;;13.37;12.07;;;21.20;99.90;;;;;;4842839;29;20628;-80
2022/05/02 08:39:06;;;;;;;12.60;11.40;;;21.00;98.50;;;;;;4843556;29;20234;-78
2022/05/02 08:42:24;;;;;;;12.57;11.47;;;21.20;98.90;;;;;;4855791;29;20272;-78
2022/05/02 08:45:23;;;;;;;12.77;11.68;;;20.70;99.90;;;;;;4847822;29;20458;-79
2022/05/02 08:48:34;;;;;;;10.57;9.57;;;21.90;99.60;;;;;;4836639;29;20342;-78
2022/05/02 08:51:36;;;;;;;11.68;10.48;;;22.10;96.80;;;;;;4823222;29;20208;-81
2022/05/02 08:54:21;;;;;;;11.25;10.15;;;22.30;96.40;;;;;;4824737;29;20224;-77
2022/05/02 08:57:07;;;;;;;10.70;9.70;;;21.50;97.10;;;;;;4836962;29;20252;-79
2022/05/02 09:00:12;;;;;;;11.33;10.23;;;21.30;97.40;;;;;;4836608;29;20266;-78
2022/05/02 09:03:40;;;;;;;11.20;10.20;;;21.10;98.60;;;;;;4840250;29;20228;-79
2022/05/02 09:06:59;;;;;;;10.73;9.83;;;20.70;99.40;;;;;;4839435;29;20215;-79
2022/05/02 09:09:53;;;;;;;11.30;10.17;;;20.30;99.00;;;;;;4840960;29;20211;-77
2022/05/02 09:12:51;;;;;;;11.47;10.20;;;19.70;99.40;;;;;;4835454;29;20204;-79
2022/05/02 09:15:57;;;;;;;10.93;9.93;;;19.10;99.70;;;;;;4844538;29;20319;-79
2022/05/02 09:18:58;;;;;;;11.33;10.33;;;18.40;99.90;;;;;;4827080;29;20220;-79
2022/05/02 09:21:31;;;;;;;10.53;9.53;;;17.80;99.90;;;;;;4826501;29;20298;-79
2022/05/02 09:24:31;;;;;;;10.43;9.43;;;17.60;99.90;;;;;;4827713;29;20291;-79
2022/05/02 09:27:34;;;;;;;9.83;8.83;;;17.90;99.90;;;;;;4841524;29;20266;-78
2022/05/02 09:30:30;;;;;;;8.60;7.80;;;17.70;99.90;;;;;;4830061;29;20318;-78
2022/05/02 09:33:24;;;;;;;8.87;7.87;;;17.90;99.90;;;;;;4849814;29;20195;-80
2022/05/02 09:35:55;;;;;;;9.47;8.47;;;18.50;99.90;;;;;;4843369;29;20425;-77
2022/05/02 09:38:25;;;;;;;10.40;9.47;;;18.60;99.90;;;;;;4856304;29;20288;-77
2022/05/02 09:41:00;;;;;;;9.00;8.20;;;18.80;99.90;;;;;;4864373;29;20207;-79
2022/05/02 09:50:09;;;;;;;8.53;7.73;;;18.80;99.90;;;;;;4835456;29;20270;-75
2022/05/02 09:53:03;;;;;;;8.70;7.80;;;18.50;99.50;;;;;;4825575;29;20309;-79
2022/05/02 09:58:43;;;;;;;8.90;8.10;;;18.20;99.90;;;;;;4836721;29;20272;-77
2022/05/02 10:01:20;;;;;;;10.87;9.67;;;18.20;99.90;;;;;;4849138;29;20199;-77
2022/05/02 10:04:27;;;;;;;10.87;9.87;;;17.90;99.90;;;;;;4862013;29;20230;-75
2022/05/02 10:07:04;;;;;;;11.83;10.67;;;17.60;99.90;;;;;;4845260;29;20255;-76
2022/05/02 10:09:59;;;;;;;12.73;11.53;;;17.60;99.90;;;;;;4844202;29;20299;-76
2022/05/02 10:12:37;;;;;;;12.70;11.60;;;17.40;99.90;;;;;;4842130;29;20247;-78
2022/05/02 10:15:32;;;;;;;12.60;11.40;;;17.10;99.90;;;;;;4859617;29;20231;-78
2022/05/02 10:18:32;;;;;;;11.97;10.77;;;17.10;99.90;;;;;;4862137;29;20301;-78
2022/05/02 10:21:08;;;;;;;10.87;9.83;;;17.50;99.90;;;;;;4855210;29;20612;-79
2022/05/02 10:23:48;;;;;;;9.63;8.73;;;17.30;99.90;;;;;;4835219;29;20452;-76
2022/05/02 10:26:31;;;;;;;9.77;8.77;;;17.50;99.90;;;;;;4847554;29;20238;-77
2022/05/02 10:29:25;;;;;;;10.47;9.30;;;18.10;99.90;;;;;;4861743;29;20218;-77
2022/05/02 10:32:03;;;;;;;10.07;9.17;;;18.50;99.90;;;;;;4851715;29;20211;-77
2022/05/02 10:34:33;;;;;;;9.10;8.20;;;18.80;99.90;;;;;;4843554;29;20294;-76
2022/05/02 10:37:06;;;;;;;10.73;8.93;;;19.20;99.90;;;;;;4854095;29;20243;-77
2022/05/02 10:39:46;;;;;;;9.30;8.40;;;19.50;98.80;;;;;;4860351;29;20215;-77
2022/05/02 10:42:19;;;;;;;9.57;8.63;;;19.50;99.20;;;;;;4825273;29;20205;-76
2022/05/02 10:44:52;;;;;;;9.67;8.73;;;19.60;99.10;;;;;;4825033;29;20311;-79
2022/05/02 10:47:21;;;;;;;10.13;9.00;;;19.60;98.90;;;;;;4824728;29;20647;-78
2022/05/02 10:50:03;;;;;;;11.13;10.13;;;19.10;98.90;;;;;;4846350;29;20298;-76
2022/05/02 10:52:54;;;;;;;10.83;9.83;;;18.20;99.90;;;;;;4862040;29;20278;-78
2022/05/02 10:55:26;;;;;;;10.70;9.70;;;18.00;99.90;;;;;;4861372;29;20306;-77
2022/05/02 10:58:02;;;;;;;11.53;10.47;;;17.90;99.90;;;;;;4844752;29;20302;-77
2022/05/02 11:00:49;;;;;;;11.80;10.80;;;17.70;99.90;;;;;;4839977;29;20460;-79
2022/05/02 11:03:29;;;;;;;10.57;9.57;;;17.60;99.90;;;;;;4843454;29;20215;-75
2022/05/02 11:06:09;;;;;;;11.17;10.00;;;17.80;99.90;;;;;;4859331;29;20227;-77
2022/05/02 11:08:45;;;;;;;10.70;9.70;;;17.90;99.90;;;;;;4860888;29;20224;-74
2022/05/02 11:11:26;;;;;;;9.07;8.17;;;18.30;99.90;;;;;;4861368;29;20257;-77
2022/05/02 11:14:04;;;;;;;8.67;7.77;;;19.30;99.10;;;;;;4854231;29;20321;-77
2022/05/02 11:16:44;;;;;;;8.60;7.80;;;19.90;98.10;;;;;;4838279;29;20255;-80
2022/05/02 11:22:28;;;;;;;8.57;7.72;;;20.30;97.10;;;;;;4833675;29;20461;-76
2022/05/02 11:25:06;;;;;;;8.00;7.20;;;20.50;96.80;;;;;;4856410;29;20309;-77
2022/05/02 11:27:42;;;;;;;8.50;7.03;;;20.50;95.70;;;;;;4858346;29;20203;-74
2022/05/02 11:30:14;;;;;;;9.90;7.77;;;20.90;94.90;;;;;;4830850;29;20219;-78
2022/05/02 11:33:12;;;;;;;9.20;8.30;;;20.60;95.10;;;;;;4856465;29;20476;-77
2022/05/02 11:35:46;;;;;;;10.93;9.93;;;20.10;94.70;;;;;;4857874;29;20467;-76
2022/05/02 11:38:33;;;;;;;9.40;8.50;;;19.70;95.20;;;;;;4846757;29;20215;-77
2022/05/02 11:41:14;;;;;;;9.77;8.73;;;20.10;96.10;;;;;;4841813;29;20236;-76
2022/05/02 11:43:44;;;;;;;11.07;10.07;;;19.80;95.50;;;;;;4841008;29;20543;-79
2022/05/02 11:46:20;;;;;;;11.63;10.53;;;19.60;95.90;;;;;;4859724;29;20211;-78
2022/05/02 11:49:13;;;;;;;11.10;10.00;;;19.00;97.70;;;;;;4849750;29;20278;-76
2022/05/02 11:51:46;;;;;;;12.03;10.93;;;19.10;98.50;;;;;;4848383;29;20233;-78
2022/05/02 11:54:33;;;;;;;10.87;9.87;;;19.60;97.30;;;;;;4859712;29;20694;-77
2022/05/02 11:57:11;;;;;;;11.50;10.40;;;19.60;99.20;;;;;;4860072;29;20305;-77
2022/05/02 11:59:50;;;;;;;11.75;10.65;;;19.50;97.10;;;;;;4855848;29;20504;-76
2022/05/02 12:02:40;;;;;;;11.37;10.27;;;19.20;98.50;;;;;;4827605;29;20239;-76
2022/05/02 12:05:20;;;;;;;11.23;10.13;;;19.20;96.90;;;;;;4842331;29;20687;-77
2022/05/02 12:07:52;;;;;;;11.37;9.97;;;19.00;98.10;;;;;;4825539;29;20648;-78
2022/05/02 12:10:22;;;;;;;11.97;10.87;;;19.30;98.50;;;;;;4829404;29;20243;-78
2022/05/02 12:12:52;;;;;;;13.67;12.13;;;19.00;98.10;;;;;;4828423;29;20220;-77
2022/05/02 12:15:21;;;;;;;12.83;11.73;;;18.40;98.00;;;;;;4835030;29;20242;-77
2022/05/02 12:17:54;;;;;;;12.43;11.23;;;18.00;98.60;;;;;;4856300;29;20273;-79
2022/05/02 12:20:25;;;;;;;12.63;11.43;;;17.90;99.40;;;;;;4862656;29;20245;-78
2022/05/02 12:23:01;;;;;;;11.30;10.20;;;17.70;99.60;;;;;;4851658;29;20285;-76
2022/05/02 12:25:32;;;;;;;13.07;11.77;;;17.80;99.90;;;;;;4862747;29;20673;-76
2022/05/02 12:28:03;;;;;;;13.30;11.90;;;17.80;99.90;;;;;;4864423;29;20253;-77
2022/05/02 12:30:32;;;;;;;12.90;11.70;;;17.70;99.90;;;;;;4856966;29;20203;-77
2022/05/02 12:33:05;;;;;;;11.80;10.73;;;17.70;99.90;;;;;;4862600;29;20306;-77
2022/05/02 12:35:40;;;;;;;13.17;11.90;;;17.80;99.90;;;;;;4859273;29;20697;-78
2022/05/02 12:38:13;;;;;;;12.30;11.10;;;17.60;99.90;;;;;;4856138;29;20463;-77
2022/05/02 12:40:42;;;;;;;12.87;11.33;;;17.80;99.90;;;;;;4828799;29;20300;-78
2022/05/02 12:43:12;;;;;;;11.57;10.57;;;17.90;99.90;;;;;;4826116;29;20301;-78
2022/05/02 12:45:46;;;;;;;10.17;9.17;;;18.20;99.90;;;;;;4826967;29;20267;-78
2022/05/02 12:48:23;;;;;;;7.80;6.87;;;19.00;99.90;;;;;;4829119;29;20207;-79
2022/05/02 12:50:52;;;;;;;7.93;7.13;;;19.30;97.80;;;;;;4837906;29;20241;-78
2022/05/02 12:56:06;;;;;;;6.80;6.10;;;18.50;98.60;;;;;;4853766;29;20211;-76
2022/05/02 13:01:22;;;;;;;6.28;5.47;;;18.20;98.00;;;;;;4849967;29;20465;-79
2022/05/02 13:04:00;;;;;;;6.70;5.72;;;18.60;97.40;;;;;;4847054;29;20452;-77
2022/05/02 13:06:31;;;;;;;5.50;5.00;;;18.60;96.40;;;;;;4828051;29;20316;-79
2022/05/02 13:09:12;;;;;;;5.87;4.80;;;18.10;97.50;;;;;;4828664;29;20247;-79
2022/05/02 13:11:40;;;;;;;5.40;4.90;;;18.40;96.90;;;;;;4835257;29;20203;-81
2022/05/02 13:14:09;;;;;;;6.93;5.50;;;18.50;96.50;;;;;;4859249;29;20269;-77
2022/05/02 13:16:44;;;;;;;6.00;5.40;;;18.80;97.10;;;;;;4861424;29;20262;-78
2022/05/02 13:19:14;;;;;;;4.60;4.20;;;19.00;95.50;;;;;;4865811;29;20195;-78
2022/05/02 13:21:42;;;;;;;5.60;5.10;;;18.60;96.10;;;;;;4868173;29;20635;-79
2022/05/02 13:24:12;;;;;;;5.57;4.97;;;19.00;96.20;;;;;;4867282;29;20235;-80
2022/05/02 13:26:53;;;;;;;6.47;5.50;;;19.60;96.40;;;;;;4863841;29;20215;-79
2022/05/02 13:30:00;;;;;;;5.57;5.00;;;20.00;96.70;;;;;;4861760;29;20286;-78
2022/05/02 13:32:32;;;;;;;6.80;6.18;;;20.20;94.40;;;;;;4831720;29;20463;-79
2022/05/02 13:35:12;;;;;;;6.30;5.70;;;19.90;95.20;;;;;;4862236;29;20261;-78
2022/05/02 13:37:54;;;;;;;5.60;5.00;;;20.00;96.00;;;;;;4865112;29;20270;-79
2022/05/02 13:40:29;;;;;;;8.13;5.73;;;20.50;94.80;;;;;;4835249;29;20207;-78
2022/05/02 13:43:05;;;;;;;5.33;4.83;;;20.40;93.50;;;;;;4830954;29;20200;-80
2022/05/02 13:45:38;;;;;;;6.40;5.80;;;20.60;95.20;;;;;;4839443;29;20204;-79
2022/05/02 13:48:15;;;;;;;6.03;5.50;;;20.50;94.50;;;;;;4836216;29;20248;-80
2022/05/02 13:50:53;;;;;;;7.63;5.43;;;20.50;95.10;;;;;;4848892;29;20243;-76
2022/05/02 13:53:35;;;;;;;7.20;5.80;;;20.00;94.90;;;;;;4854615;29;20211;-79
2022/05/02 13:56:17;;;;;;;8.27;5.77;;;19.40;96.00;;;;;;4846217;29;20206;-79
2022/05/02 13:59:00;;;;;;;6.23;5.63;;;19.40;94.90;;;;;;4847305;29;20239;-78
2022/05/02 14:01:36;;;;;;;9.13;6.33;;;19.20;96.50;;;;;;4845580;29;20635;-79
2022/05/02 14:04:17;;;;;;;6.07;5.47;;;19.00;95.90;;;;;;4831210;29;20564;-79
2022/05/02 14:07:00;;;;;;;8.13;4.93;;;18.70;96.50;;;;;;4830287;29;20200;-79
2022/05/02 14:09:40;;;;;;;6.03;4.43;;;18.50;95.40;;;;;;4831425;29;20216;-78
2022/05/02 14:12:29;;;;;;;5.47;4.70;;;18.40;96.80;;;;;;4853282;29;20199;-80
2022/05/02 14:14:59;;;;;;;5.13;4.63;;;18.50;96.00;;;;;;4847452;29;20263;-80
2022/05/02 14:17:31;;;;;;;6.23;5.17;;;18.30;96.30;;;;;;4845640;29;20231;-79
2022/05/02 14:20:21;;;;;;;5.17;4.40;;;18.30;96.30;;;;;;4844149;29;20349;-79
2022/05/02 14:22:56;;;;;;;5.53;5.00;;;18.50;96.70;;;;;;4825571;29;20903;-78
2022/05/02 14:25:34;;;;;;;5.97;5.10;;;18.30;95.70;;;;;;4825197;29;20780;-81
2022/05/02 14:28:11;;;;;;;5.93;4.93;;;18.50;96.30;;;;;;4826102;29;20291;-79
2022/05/02 14:30:41;;;;;;;5.80;4.97;;;18.90;95.30;;;;;;4826451;29;20212;-81
2022/05/02 14:33:12;;;;;;;4.67;4.20;;;19.10;95.60;;;;;;4825932;29;20240;-77
2022/05/02 14:35:42;;;;;;;5.63;5.03;;;19.40;97.30;;;;;;4825939;29;20687;-79
2022/05/02 14:38:14;;;;;;;4.87;4.37;;;19.40;95.20;;;;;;4827043;29;20298;-77
2022/05/02 14:40:44;;;;;;;4.17;3.67;;;19.70;95.30;;;;;;4837582;29;20294;-82
2022/05/02 14:43:14;;;;;;;4.20;3.80;;;19.80;95.30;;;;;;4846156;29;20219;-77
2022/05/02 14:45:43;;;;;;;5.77;4.83;;;19.90;96.00;;;;;;4847153;29;20282;-77
2022/05/02 14:48:13;;;;;;;6.70;4.60;;;20.10;94.30;;;;;;4846933;29;20244;-78
2022/05/02 14:50:43;;;;;;;5.83;4.80;;;20.10;95.70;;;;;;4847445;29;20250;-78
2022/05/02 14:53:15;;;;;;;5.27;4.47;;;19.80;94.10;;;;;;4858396;29;20259;-76
2022/05/02 14:55:45;;;;;;;5.23;4.73;;;19.50;94.50;;;;;;4849360;29;20656;-78
2022/05/02 14:58:18;;;;;;;5.03;4.00;;;19.10;94.50;;;;;;4828240;29;20289;-77
2022/05/02 15:00:49;;;;;;;4.83;4.00;;;18.90;96.40;;;;;;4831567;29;20228;-77
2022/05/02 15:03:22;;;;;;;4.27;3.87;;;18.80;94.50;;;;;;4867947;29;20586;-75
2022/05/02 15:05:50;;;;;;;4.33;3.93;;;18.70;95.20;;;;;;4874910;29;20290;-76
2022/05/02 15:08:41;;;;;;;4.70;4.20;;;18.40;94.70;;;;;;4867830;29;20208;-76
2022/05/02 15:11:22;;;;;;;4.60;4.20;;;18.30;95.50;;;;;;4857665;29;20207;-76
2022/05/02 15:14:24;;;;;;;4.93;4.43;;;18.30;96.60;;;;;;4847921;29;20219;-77
2022/05/02 15:17:11;;;;;;;4.43;4.03;;;18.30;96.50;;;;;;4848737;29;20211;-76
2022/05/02 15:19:47;;;;;;;3.53;3.23;;;18.50;94.90;;;;;;4845788;29;20207;-75
2022/05/02 15:22:23;;;;;;;4.23;3.13;;;18.50;94.50;;;;;;4826898;29;20670;-75
2022/05/02 15:25:06;;;;;;;3.60;2.73;;;18.70;94.40;;;;;;4827084;29;20220;-76
2022/05/02 15:36:40;;;;;;;3.03;2.83;;;18.90;92.50;;;;;;4837834;29;20212;-76
2022/05/02 15:39:13;;;;;;;3.63;2.60;;;19.00;94.40;;;;;;4823778;29;20271;-75
2022/05/02 15:42:06;;;;;;;4.87;3.00;;;18.80;92.40;;;;;;4823512;29;20694;-76
2022/05/02 15:44:43;;;;;;;3.97;3.57;;;18.70;93.10;;;;;;4823961;29;20288;-75
2022/05/02 15:47:15;;;;;;;4.10;2.73;;;18.60;94.10;;;;;;4836171;29;20227;-76
2022/05/02 15:49:45;;;;;;;3.37;2.90;;;18.50;94.30;;;;;;4841233;29;20311;-76
2022/05/02 15:52:16;;;;;;;3.10;2.77;;;18.40;94.70;;;;;;4824207;29;20261;-77
2022/05/02 15:54:59;;;;;;;3.03;2.53;;;18.40;94.00;;;;;;4855862;29;20211;-76
2022/05/02 15:57:49;;;;;;;3.10;2.80;;;18.60;95.30;;;;;;4847771;29;20204;-76
2022/05/02 16:00:26;;;;;;;2.53;2.33;;;18.80;94.10;;;;;;4854346;29;20578;-77
2022/05/02 16:03:24;;;;;;;3.13;2.30;;;18.80;93.60;;;;;;4852609;29;20730;-75
2022/05/02 16:06:21;;;;;;;3.10;2.80;;;18.60;93.90;;;;;;4857330;29;20223;-76
2022/05/02 16:11:41;;;;;;;4.90;3.20;;;19.00;94.40;;;;;;4843724;29;20299;-78
2022/05/02 16:14:17;;;;;;;4.00;3.20;;;19.20;94.30;;;;;;4841505;29;20207;-74
2022/05/02 16:16:48;;;;;;;3.80;3.50;;;19.30;94.90;;;;;;4841560;29;20282;-74
2022/05/02 16:19:18;;;;;;;3.10;2.83;;;19.30;94.80;;;;;;4841665;29;20322;-77
2022/05/02 16:21:46;;;;;;;3.37;3.07;;;19.40;95.10;;;;;;4845170;29;20758;-77
2022/05/02 16:24:14;;;;;;;3.97;3.23;;;19.30;94.00;;;;;;4859306;29;20331;-76
2022/05/02 16:26:43;;;;;;;7.70;5.73;;;19.20;94.40;;;;;;4859760;29;20279;-76
2022/05/02 16:29:17;;;;;;;5.33;4.20;;;19.10;95.50;;;;;;4859621;29;20238;-77
2022/05/02 16:31:47;;;;;;;3.63;3.33;;;18.90;95.70;;;;;;4831353;29;20299;-76
2022/05/02 16:34:15;;;;;;;3.20;2.90;;;18.80;94.70;;;;;;4822985;29;20220;-75
2022/05/02 16:36:43;;;;;;;4.03;3.47;;;18.80;95.30;;;;;;4824305;29;20311;-77
2022/05/02 16:39:13;;;;;;;4.87;3.00;;;18.70;95.10;;;;;;4859630;29;20303;-75
2022/05/02 16:41:42;;;;;;;4.37;3.57;;;18.90;96.30;;;;;;4832918;29;20240;-75
2022/05/02 16:44:22;;;;;;;4.77;3.43;;;18.70;94.80;;;;;;4823394;29;20239;-74
2022/05/02 16:46:51;;;;;;;3.67;3.30;;;18.70;95.90;;;;;;4823337;29;20204;-74
2022/05/02 16:49:22;;;;;;;5.83;3.30;;;18.70;95.50;;;;;;4822843;29;20216;-75
2022/05/02 16:51:50;;;;;;;6.23;3.60;;;18.40;96.60;;;;;;4823006;29;20239;-77
2022/05/02 16:54:22;;;;;;;4.63;3.30;;;18.30;96.90;;;;;;4826807;29;20281;-76
2022/05/02 16:56:51;;;;;;;3.77;3.40;;;18.10;98.00;;;;;;4824065;29;20288;-77
2022/05/02 16:59:23;;;;;;;3.60;3.30;;;18.00;96.20;;;;;;4822612;29;20703;-79
2022/05/02 17:01:54;;;;;;;3.80;3.30;;;18.00;96.60;;;;;;4844261;29;20693;-77
2022/05/02 17:04:23;;;;;;;7.47;4.10;;;17.80;98.20;;;;;;4827362;29;20238;-78
2022/05/02 17:06:59;;;;;;;10.17;7.10;;;17.50;99.80;;;;;;4823406;29;20200;-79
2022/05/02 17:09:33;;;;;;;11.03;5.73;;;17.50;99.90;;;;;;4824331;29;20196;-76
2022/05/02 17:12:01;;;;;;;7.00;5.07;;;17.30;99.90;;;;;;4834996;29;20216;-76
2022/05/02 17:14:31;;;;;;;5.47;4.70;;;17.00;99.90;;;;;;4840155;29;20247;-76
2022/05/02 17:17:02;;;;;;;5.47;4.50;;;16.90;99.90;;;;;;4840934;29;20266;-78
2022/05/02 17:19:30;;;;;;;6.20;4.23;;;16.70;99.90;;;;;;4841076;29;20655;-76
2022/05/02 17:22:01;;;;;;;6.40;4.50;;;16.70;99.90;;;;;;4840955;29;20249;-77
2022/05/02 17:24:41;;;;;;;6.77;4.93;;;16.60;99.90;;;;;;4841401;29;20235;-77
2022/05/02 17:27:13;;;;;;;6.77;4.27;;;16.50;99.90;;;;;;4840815;29;20212;-76
2022/05/02 17:29:44;;;;;;;6.90;4.57;;;16.50;99.90;;;;;;4834313;29;20276;-75
2022/05/02 17:32:15;;;;;;;8.53;5.30;;;16.40;99.90;;;;;;4840609;29;20280;-78
2022/05/02 17:34:45;;;;;;;6.13;4.63;;;16.10;99.90;;;;;;4846002;29;20239;-77
2022/05/02 17:37:17;;;;;;;6.27;5.03;;;16.10;99.90;;;;;;4848151;29;20222;-76
2022/05/02 17:39:49;;;;;;;5.70;4.85;;;16.00;99.90;;;;;;4847965;29;20499;-75
2022/05/02 17:42:21;;;;;;;5.23;4.60;;;15.80;99.90;;;;;;4844471;29;20315;-77
2022/05/02 17:44:52;;;;;;;6.60;4.70;;;15.80;99.90;;;;;;4843112;29;20243;-75
2022/05/02 17:47:25;;;;;;;6.80;4.90;;;15.80;99.90;;;;;;4843512;29;20228;-77
2022/05/02 17:49:55;;;;;;;8.23;5.30;;;16.00;99.90;;;;;;4844064;29;20227;-77
2022/05/02 17:52:25;;;;;;;8.00;5.10;;;16.00;99.90;;;;;;4842879;29;20239;-78
2022/05/02 17:54:57;;;;;;;5.97;4.90;;;16.10;99.90;;;;;;4843840;29;20288;-76
2022/05/02 17:57:26;;;;;;;5.70;5.00;;;16.00;99.90;;;;;;4845907;29;20257;-77
2022/05/02 18:00:07;;;;;;;8.80;4.90;;;16.00;99.90;;;;;;4850583;29;20242;-77
2022/05/02 18:02:38;;;;;;;5.63;4.10;;;15.90;99.90;;;;;;4839425;29;20777;-77
2022/05/02 18:05:10;;;;;;;5.60;4.40;;;15.90;99.90;;;;;;4845768;29;20262;-76
2022/05/02 18:07:43;;;;;;;5.27;3.67;;;15.90;99.90;;;;;;4841278;29;20215;-78
2022/05/02 18:10:20;;;;;;;7.47;5.23;;;15.90;99.90;;;;;;4842807;29;20208;-79
2022/05/02 18:13:08;;;;;;;6.83;5.80;;;15.90;99.90;;;;;;4840000;29;20212;-77
2022/05/02 18:15:39;;;;;;;7.10;6.07;;;15.50;99.90;;;;;;4842891;29;20307;-75